Time;durP1;ratioP1;P1;durP2;ratioP2;P2;SDS_P1;SDS_P2;PMS_P1;PMS_P2;Temp;Humidity;BMP_temperature;BMP_pressure;BME280_temperature;BME280_humidity;BME280_pressure;Samples;Min_cycle;Max_cycle;Signal;HPM_P1;HPM_P2
2021/05/11 00:00:56;;;;;;;5.13;3.20;;;17.70;64.10;;;;;;5103039;28;20200;-70
2021/05/11 00:03:22;;;;;;;4.30;3.25;;;17.60;64.30;;;;;;5097684;28;20196;-70
2021/05/11 00:05:49;;;;;;;4.20;3.05;;;17.60;64.40;;;;;;5097798;28;20363;-71
2021/05/11 00:08:15;;;;;;;5.00;3.35;;;17.60;64.80;;;;;;5094776;28;20702;-70
2021/05/11 00:10:42;;;;;;;6.40;3.30;;;17.50;65.10;;;;;;5099402;28;20192;-71
2021/05/11 00:13:08;;;;;;;4.90;3.10;;;17.50;65.20;;;;;;5100795;28;20266;-70
2021/05/11 00:15:34;;;;;;;6.93;3.75;;;17.40;65.30;;;;;;5110494;28;20668;-71
2021/05/11 00:18:01;;;;;;;4.60;3.00;;;17.40;65.60;;;;;;5094754;28;20196;-71
2021/05/11 00:20:27;;;;;;;5.77;3.23;;;17.30;65.70;;;;;;5095048;28;20291;-70
2021/05/11 00:22:54;;;;;;;5.30;3.70;;;17.30;66.00;;;;;;5100071;28;20196;-71
2021/05/11 00:25:21;;;;;;;5.13;3.70;;;17.30;66.20;;;;;;5111555;28;20208;-70
2021/05/11 00:27:47;;;;;;;5.30;3.50;;;17.30;66.50;;;;;;5093577;28;20228;-71
2021/05/11 00:30:15;;;;;;;5.93;3.80;;;17.20;66.60;;;;;;5108994;28;20287;-70
2021/05/11 00:32:41;;;;;;;5.93;3.28;;;17.20;66.80;;;;;;5099603;28;20260;-71
2021/05/11 00:35:08;;;;;;;4.90;3.80;;;17.10;66.90;;;;;;5105308;28;20245;-73
2021/05/11 00:37:36;;;;;;;5.83;3.13;;;17.10;67.10;;;;;;5104317;28;20204;-71
2021/05/11 00:40:04;;;;;;;3.80;3.38;;;17.10;67.20;;;;;;5092534;28;20673;-71
2021/05/11 00:42:30;;;;;;;4.50;3.47;;;17.10;67.40;;;;;;5097528;28;20706;-72
2021/05/11 00:44:57;;;;;;;4.50;3.20;;;17.10;67.50;;;;;;5108371;28;20718;-71
2021/05/11 00:47:23;;;;;;;6.50;2.80;;;17.10;67.60;;;;;;5091582;28;20592;-70
2021/05/11 00:49:49;;;;;;;3.53;3.00;;;17.10;67.80;;;;;;5102402;28;20199;-71
2021/05/11 00:52:16;;;;;;;4.37;3.57;;;17.00;68.00;;;;;;5096948;28;20940;-70
2021/05/11 00:54:42;;;;;;;3.83;3.17;;;17.00;68.10;;;;;;5111833;28;20263;-70
2021/05/11 00:57:11;;;;;;;3.80;3.20;;;17.00;68.30;;;;;;5098718;28;20208;-71
2021/05/11 00:59:37;;;;;;;6.93;3.40;;;16.90;68.50;;;;;;5105722;28;20212;-70
2021/05/11 01:02:06;;;;;;;4.43;3.10;;;16.90;68.70;;;;;;5091675;28;20207;-68
2021/05/11 01:04:33;;;;;;;6.07;3.43;;;16.90;69.00;;;;;;5096852;28;20218;-68
2021/05/11 01:07:00;;;;;;;4.03;3.03;;;16.90;69.20;;;;;;5099299;28;20205;-68
2021/05/11 01:09:27;;;;;;;4.80;3.30;;;16.80;69.60;;;;;;5099071;28;20220;-68
2021/05/11 01:11:54;;;;;;;5.00;3.70;;;16.70;70.00;;;;;;5094517;28;20211;-68
2021/05/11 01:14:25;;;;;;;7.17;3.33;;;16.70;70.30;;;;;;5098326;28;20313;-68
2021/05/11 01:16:54;;;;;;;4.37;3.43;;;16.70;70.70;;;;;;5092784;28;20234;-69
2021/05/11 01:19:22;;;;;;;4.10;3.20;;;16.60;71.10;;;;;;5104183;28;20234;-68
2021/05/11 01:21:53;;;;;;;5.17;3.30;;;16.50;71.20;;;;;;5101344;28;20204;-68
2021/05/11 01:24:23;;;;;;;6.03;3.40;;;16.50;71.50;;;;;;5101840;28;20200;-68
2021/05/11 01:26:53;;;;;;;5.07;3.57;;;16.50;72.00;;;;;;5096632;28;20243;-68
2021/05/11 01:32:43;;;;;;;7.80;3.90;;;16.40;72.60;;;;;;5097796;28;20208;-68
2021/05/11 01:44:01;;;;;;;5.20;4.33;;;16.20;74.10;;;;;;5057102;28;20565;-68
2021/05/11 01:46:40;;;;;;;7.47;4.20;;;16.20;74.50;;;;;;5090751;28;20209;-68
2021/05/11 01:49:11;;;;;;;4.63;3.80;;;16.20;75.00;;;;;;5097425;28;20216;-68
2021/05/11 01:52:10;;;;;;;5.57;3.80;;;16.20;76.00;;;;;;5093637;28;20208;-67
2021/05/11 01:54:48;;;;;;;6.23;3.87;;;16.10;75.40;;;;;;5092746;28;20231;-69
2021/05/11 02:24:43;;;;;;;8.13;4.07;;;15.80;80.90;;;;;;5102076;28;20196;-67
2021/05/11 02:27:09;;;;;;;5.47;3.70;;;15.70;81.80;;;;;;5105487;28;20237;-68
2021/05/11 02:29:36;;;;;;;6.47;3.90;;;15.70;82.50;;;;;;5095451;28;20681;-68
2021/05/11 02:32:03;;;;;;;5.63;3.63;;;15.60;83.00;;;;;;5101888;28;20199;-67
2021/05/11 02:34:29;;;;;;;5.23;3.43;;;15.60;83.60;;;;;;5103533;28;20280;-69
2021/05/11 02:36:55;;;;;;;10.70;3.73;;;15.60;84.10;;;;;;5106271;28;20297;-67
2021/05/11 02:39:22;;;;;;;6.20;3.30;;;15.50;84.60;;;;;;5106646;28;20228;-67
2021/05/11 02:41:48;;;;;;;5.00;3.80;;;15.50;85.20;;;;;;5092252;28;20667;-68
2021/05/11 02:44:17;;;;;;;7.70;3.70;;;15.50;85.70;;;;;;5104579;28;20674;-68
2021/05/11 02:46:45;;;;;;;6.60;4.40;;;15.40;86.30;;;;;;5106178;28;20204;-67
2021/05/11 02:49:12;;;;;;;6.43;4.17;;;15.40;87.00;;;;;;5104446;28;21547;-68
2021/05/11 02:51:38;;;;;;;4.93;4.03;;;15.40;87.70;;;;;;5097030;28;20213;-67
2021/05/11 02:54:05;;;;;;;8.97;3.27;;;15.30;88.30;;;;;;5107907;28;20204;-68
2021/05/11 02:56:31;;;;;;;5.53;3.53;;;15.30;89.00;;;;;;5106665;28;20211;-68
2021/05/11 02:58:58;;;;;;;5.00;3.80;;;15.30;89.60;;;;;;5112996;28;20201;-68
2021/05/11 03:01:24;;;;;;;5.10;3.43;;;15.30;90.10;;;;;;5093455;28;20243;-68
2021/05/11 03:03:51;;;;;;;6.40;3.70;;;15.30;90.10;;;;;;5108214;28;20712;-68
2021/05/11 03:06:17;;;;;;;4.90;3.57;;;15.30;90.50;;;;;;5101599;28;20241;-68
2021/05/11 03:08:44;;;;;;;6.30;3.60;;;15.20;90.60;;;;;;5096772;28;20220;-68
2021/05/11 03:11:11;;;;;;;4.57;3.57;;;15.20;90.80;;;;;;5098134;28;20287;-68
2021/05/11 03:13:37;;;;;;;8.30;3.90;;;15.20;91.00;;;;;;5099648;28;20232;-69
2021/05/11 03:16:04;;;;;;;9.30;4.27;;;15.20;91.20;;;;;;5098144;28;20208;-68
2021/05/11 03:18:30;;;;;;;6.00;3.53;;;15.20;91.30;;;;;;5113470;28;20231;-68
2021/05/11 03:20:58;;;;;;;6.13;4.33;;;15.10;91.30;;;;;;5108371;28;20667;-67
2021/05/11 03:23:24;;;;;;;6.27;3.63;;;15.10;91.40;;;;;;5108347;28;20645;-67
2021/05/11 03:25:51;;;;;;;4.07;3.47;;;15.20;91.60;;;;;;5106399;28;20537;-67
2021/05/11 03:28:17;;;;;;;5.77;4.13;;;15.20;91.70;;;;;;5094750;28;20257;-68
2021/05/11 03:30:44;;;;;;;6.00;3.90;;;15.20;91.70;;;;;;5095641;28;20291;-68
2021/05/11 03:33:10;;;;;;;7.07;4.30;;;15.20;91.80;;;;;;5103074;28;20208;-68
2021/05/11 03:35:37;;;;;;;6.97;4.00;;;15.20;91.70;;;;;;5109060;28;20212;-68
2021/05/11 03:38:05;;;;;;;5.70;3.90;;;15.20;92.20;;;;;;5095978;28;20199;-68
2021/05/11 03:40:32;;;;;;;7.07;3.90;;;15.30;91.80;;;;;;5105086;28;20203;-68
2021/05/11 03:43:02;;;;;;;7.87;3.97;;;15.30;91.70;;;;;;5096109;28;20300;-67
2021/05/11 03:45:33;;;;;;;6.13;3.97;;;15.30;91.70;;;;;;5103233;28;20649;-68
2021/05/11 03:47:59;;;;;;;9.63;4.40;;;15.40;91.70;;;;;;5102751;27;20242;-68
2021/05/11 03:50:26;;;;;;;9.83;4.60;;;15.40;91.50;;;;;;5101133;28;20226;-67
2021/05/11 03:52:52;;;;;;;7.57;3.53;;;15.40;91.40;;;;;;5110266;28;20607;-67
2021/05/11 03:55:19;;;;;;;7.83;3.80;;;15.40;91.30;;;;;;5112338;28;21336;-68
2021/05/11 03:57:46;;;;;;;5.80;3.93;;;15.40;91.20;;;;;;5093398;28;20228;-67
2021/05/11 04:00:14;;;;;;;5.83;4.07;;;15.50;91.20;;;;;;5100418;28;20200;-68
2021/05/11 04:02:40;;;;;;;7.43;3.90;;;15.50;91.10;;;;;;5096438;28;20208;-67
2021/05/11 04:05:09;;;;;;;6.63;3.90;;;15.50;90.90;;;;;;5100968;28;20205;-68
2021/05/11 04:07:36;;;;;;;10.50;4.27;;;15.60;90.80;;;;;;5108790;28;20208;-67
2021/05/11 04:10:06;;;;;;;10.83;4.30;;;15.60;90.70;;;;;;5092726;28;20282;-68
2021/05/11 04:18:01;;;;;;;5.10;3.47;;;15.60;90.30;;;;;;5095649;28;20299;-68
2021/05/11 04:20:28;;;;;;;6.50;3.60;;;15.70;90.30;;;;;;5102151;28;20236;-68
2021/05/11 04:22:54;;;;;;;7.03;3.50;;;15.70;90.30;;;;;;5105434;28;20291;-68
2021/05/11 04:25:21;;;;;;;6.70;4.20;;;15.80;90.20;;;;;;5112289;28;20649;-67
2021/05/11 04:27:48;;;;;;;8.20;4.43;;;15.80;90.10;;;;;;5099590;28;20240;-67
2021/05/11 04:30:16;;;;;;;5.30;4.20;;;15.80;90.10;;;;;;5099688;28;20291;-68
2021/05/11 04:32:42;;;;;;;5.90;3.90;;;15.90;89.90;;;;;;5094606;28;20204;-67
2021/05/11 04:35:09;;;;;;;7.50;3.73;;;15.90;89.30;;;;;;5103372;28;20622;-67
2021/05/11 04:37:35;;;;;;;6.50;3.70;;;15.90;89.30;;;;;;5105559;27;20208;-68
2021/05/11 04:40:01;;;;;;;5.67;3.90;;;16.00;89.00;;;;;;5099057;28;20300;-67
2021/05/11 04:42:28;;;;;;;7.13;4.10;;;16.10;89.60;;;;;;5096392;28;20675;-67
2021/05/11 04:44:57;;;;;;;7.30;3.90;;;16.10;88.40;;;;;;5110634;28;20613;-68
2021/05/11 04:47:30;;;;;;;7.37;3.90;;;16.20;88.10;;;;;;5104247;28;20673;-67
2021/05/11 04:49:57;;;;;;;5.80;4.07;;;16.20;87.90;;;;;;5097674;27;20236;-68
2021/05/11 04:52:24;;;;;;;10.50;4.03;;;16.30;87.70;;;;;;5095508;28;20204;-68
2021/05/11 04:54:50;;;;;;;6.07;4.00;;;16.40;87.50;;;;;;5100763;28;20208;-67
2021/05/11 04:57:17;;;;;;;6.17;4.50;;;16.40;87.10;;;;;;5098059;28;20323;-68
2021/05/11 04:59:43;;;;;;;6.63;3.13;;;16.50;86.70;;;;;;5098241;28;20330;-68
2021/05/11 05:02:11;;;;;;;7.40;4.13;;;16.50;86.60;;;;;;5098656;28;20727;-67
2021/05/11 05:04:38;;;;;;;8.47;4.40;;;16.60;87.00;;;;;;5100712;28;20298;-68
2021/05/11 05:07:04;;;;;;;11.30;4.07;;;16.60;85.70;;;;;;5093641;28;20201;-68
2021/05/11 05:09:31;;;;;;;6.23;3.97;;;16.60;85.60;;;;;;5094316;28;20321;-67
2021/05/11 05:11:57;;;;;;;6.90;3.77;;;16.70;85.30;;;;;;5092872;28;20209;-68
2021/05/11 05:14:23;;;;;;;5.63;3.80;;;16.80;84.90;;;;;;5099368;28;20311;-68
2021/05/11 05:16:50;;;;;;;6.30;3.60;;;16.80;84.50;;;;;;5103905;28;20634;-68
2021/05/11 05:19:17;;;;;;;6.30;4.33;;;16.90;84.60;;;;;;5097553;28;20653;-69
2021/05/11 05:21:43;;;;;;;8.47;4.20;;;16.90;84.20;;;;;;5106758;28;20236;-69
2021/05/11 05:24:12;;;;;;;8.80;4.40;;;17.00;84.10;;;;;;5093580;28;20289;-70
2021/05/11 05:26:39;;;;;;;4.63;3.80;;;17.00;83.70;;;;;;5101830;28;20251;-70
2021/05/11 05:29:05;;;;;;;7.87;4.07;;;17.10;83.20;;;;;;5090465;28;20227;-71
2021/05/11 05:31:32;;;;;;;7.70;4.10;;;17.10;83.00;;;;;;5101943;28;20236;-70
2021/05/11 05:33:58;;;;;;;8.63;4.17;;;17.20;82.40;;;;;;5110322;28;20290;-69
2021/05/11 05:36:25;;;;;;;6.30;3.80;;;17.20;81.80;;;;;;5092024;28;20201;-69
2021/05/11 05:38:52;;;;;;;6.10;3.80;;;17.20;81.70;;;;;;5103301;28;20665;-69
2021/05/11 05:41:22;;;;;;;5.40;3.80;;;17.30;81.60;;;;;;5106041;28;20233;-70
2021/05/11 05:43:48;;;;;;;5.50;4.13;;;17.40;81.30;;;;;;5108199;28;20645;-70
2021/05/11 05:46:15;;;;;;;4.60;3.80;;;17.40;80.80;;;;;;5106040;28;20200;-69
2021/05/11 05:48:42;;;;;;;5.77;3.93;;;17.50;80.50;;;;;;5095922;28;20739;-70
2021/05/11 05:51:09;;;;;;;5.20;3.57;;;17.60;80.10;;;;;;5095155;28;20730;-69
2021/05/11 05:53:37;;;;;;;5.03;3.93;;;17.60;79.80;;;;;;5095532;28;20208;-70
2021/05/11 05:56:05;;;;;;;11.03;4.20;;;17.60;79.30;;;;;;5103776;28;20211;-70
2021/05/11 05:58:32;;;;;;;4.83;4.30;;;17.70;79.30;;;;;;5093985;28;20680;-70
2021/05/11 06:01:01;;;;;;;7.60;4.33;;;17.70;79.20;;;;;;5092648;28;20259;-70
2021/05/11 06:03:34;;;;;;;7.40;3.73;;;17.80;79.00;;;;;;5091509;28;20328;-69
2021/05/11 06:06:01;;;;;;;6.18;3.63;;;17.90;78.30;;;;;;5108240;28;20206;-69
2021/05/11 06:08:29;;;;;;;8.27;3.80;;;18.00;78.20;;;;;;5099697;28;20657;-69
2021/05/11 06:11:00;;;;;;;5.72;3.55;;;18.00;77.50;;;;;;5102726;28;20208;-70
2021/05/11 06:13:32;;;;;;;7.57;4.00;;;18.10;77.30;;;;;;5093708;28;20231;-70
2021/05/11 06:18:43;;;;;;;5.15;4.15;;;18.30;76.70;;;;;;5093100;28;20223;-70
2021/05/11 06:21:10;;;;;;;5.68;3.67;;;18.30;75.80;;;;;;5104343;28;20294;-73
2021/05/11 06:23:36;;;;;;;7.43;4.10;;;18.40;75.00;;;;;;5103936;28;20286;-69
2021/05/11 06:26:04;;;;;;;8.15;3.78;;;18.40;75.60;;;;;;5095820;28;20576;-69
2021/05/11 06:28:36;;;;;;;7.22;3.78;;;18.50;74.60;;;;;;5096127;28;20235;-69
2021/05/11 06:31:03;;;;;;;9.30;3.85;;;18.60;74.60;;;;;;5092931;28;20696;-68
2021/05/11 06:33:29;;;;;;;4.45;3.63;;;18.70;73.60;;;;;;5102067;28;20231;-68
2021/05/11 06:35:56;;;;;;;5.35;3.53;;;18.70;73.50;;;;;;5105099;28;20288;-69
2021/05/11 06:38:22;;;;;;;5.95;3.15;;;18.80;73.10;;;;;;5095237;28;20207;-71
2021/05/11 06:40:49;;;;;;;5.72;3.50;;;18.80;72.30;;;;;;5101999;28;20647;-69
2021/05/11 06:43:23;;;;;;;4.20;3.35;;;18.90;72.00;;;;;;5107191;28;20200;-68
2021/05/11 06:48:36;;;;;;;4.22;3.72;;;19.10;71.70;;;;;;5095165;28;20250;-68
2021/05/11 06:53:48;;;;;;;4.50;4.00;;;19.30;70.60;;;;;;5057598;28;20273;-69
2021/05/11 06:56:15;;;;;;;5.68;3.35;;;19.30;70.30;;;;;;5097218;28;20231;-69
2021/05/11 06:58:42;;;;;;;6.15;3.58;;;19.40;70.30;;;;;;5096008;28;20265;-68
2021/05/11 07:01:09;;;;;;;7.22;3.75;;;19.50;70.30;;;;;;5095331;28;20196;-68
2021/05/11 07:03:35;;;;;;;4.97;3.55;;;19.60;69.40;;;;;;5106776;28;20824;-68
2021/05/11 07:06:02;;;;;;;5.95;3.80;;;19.70;68.60;;;;;;5095166;28;20200;-67
2021/05/11 07:08:36;;;;;;;6.60;3.58;;;19.70;68.20;;;;;;5100228;28;20232;-68
2021/05/11 07:11:11;;;;;;;6.70;3.00;;;19.80;67.60;;;;;;5095956;28;20638;-69
2021/05/11 07:13:36;;;;;;;6.13;3.63;;;19.90;67.40;;;;;;5103658;28;20493;-68
2021/05/11 07:16:04;;;;;;;4.95;3.28;;;19.90;67.10;;;;;;5110402;28;20200;-68
2021/05/11 07:18:34;;;;;;;7.40;3.55;;;20.00;67.00;;;;;;5095006;28;20716;-68
2021/05/11 07:21:01;;;;;;;6.35;3.47;;;20.10;67.00;;;;;;5094256;28;20203;-67
2021/05/11 07:23:29;;;;;;;5.18;3.40;;;20.30;66.60;;;;;;5093930;28;20242;-67
2021/05/11 07:26:04;;;;;;;5.47;3.08;;;20.40;66.10;;;;;;5098533;28;20227;-67
2021/05/11 07:28:43;;;;;;;7.30;3.42;;;20.50;65.30;;;;;;5109393;28;20568;-67
2021/05/11 07:31:12;;;;;;;5.63;3.20;;;20.70;64.90;;;;;;5092831;28;20312;-68
2021/05/11 07:33:43;;;;;;;5.00;2.65;;;20.80;64.30;;;;;;5109291;28;20212;-67
2021/05/11 07:36:11;;;;;;;4.22;3.25;;;21.00;64.00;;;;;;5101701;28;20197;-66
2021/05/11 07:38:37;;;;;;;6.22;3.13;;;21.10;63.80;;;;;;5098311;28;20196;-67
2021/05/11 07:41:04;;;;;;;5.22;3.47;;;21.30;62.50;;;;;;5098603;28;20256;-71
2021/05/11 07:43:32;;;;;;;4.38;3.03;;;21.40;62.00;;;;;;5104366;28;20778;-69
2021/05/11 08:05:18;;;;;;;4.68;3.35;;;22.50;58.30;;;;;;5096142;28;20292;-68
2021/05/11 08:10:37;;;;;;;5.25;3.08;;;22.70;57.70;;;;;;5079243;28;20213;-70
2021/05/11 08:15:52;;;;;;;3.97;2.70;;;23.10;57.30;;;;;;5096541;28;20571;-69
2021/05/11 08:18:26;;;;;;;5.93;2.90;;;23.30;56.90;;;;;;5097159;28;20204;-69
2021/05/11 08:29:02;;;;;;;3.97;2.33;;;23.70;54.50;;;;;;5094696;28;20219;-68
2021/05/11 08:31:28;;;;;;;4.35;2.83;;;23.70;54.40;;;;;;5095354;28;20292;-69
2021/05/11 08:33:55;;;;;;;4.78;2.33;;;23.70;54.10;;;;;;5107101;28;20236;-70
2021/05/11 08:36:22;;;;;;;7.53;2.80;;;23.80;54.10;;;;;;5095854;28;20205;-69
2021/05/11 08:38:48;;;;;;;4.80;2.47;;;23.80;54.20;;;;;;5099934;28;20644;-68
2021/05/11 08:41:15;;;;;;;4.63;2.47;;;23.90;53.90;;;;;;5096772;28;20266;-69
2021/05/11 08:43:44;;;;;;;5.75;2.88;;;24.10;53.70;;;;;;5098230;28;20687;-69
2021/05/11 08:46:11;;;;;;;6.65;2.83;;;24.20;53.80;;;;;;5108382;28;20207;-69
2021/05/11 08:48:38;;;;;;;5.32;2.88;;;24.30;53.40;;;;;;5106410;28;20255;-69
2021/05/11 08:51:08;;;;;;;6.40;3.03;;;24.40;52.80;;;;;;5101082;28;20677;-69
2021/05/11 08:54:12;;;;;;;4.15;2.60;;;24.50;53.00;;;;;;5097329;28;20295;-69
2021/05/11 09:05:12;;;;;;;4.18;2.55;;;24.80;52.30;;;;;;5093376;28;20222;-70
2021/05/11 09:08:00;;;;;;;4.15;2.67;;;25.00;52.80;;;;;;5094522;28;20205;-69
2021/05/11 09:24:44;;;;;;;3.08;2.40;;;25.40;50.20;;;;;;5099047;28;20234;-67
2021/05/11 09:27:20;;;;;;;9.00;2.65;;;25.60;50.40;;;;;;5097095;28;20368;-67
2021/05/11 09:30:01;;;;;;;4.15;2.80;;;25.80;50.20;;;;;;5095651;28;20212;-68
2021/05/11 09:32:38;;;;;;;9.88;5.03;;;26.10;50.00;;;;;;5102467;28;20239;-68
2021/05/11 09:54:45;;;;;;;2.78;2.47;;;26.50;48.20;;;;;;5106897;28;20196;-69
2021/05/11 09:57:27;;;;;;;4.53;2.40;;;26.50;48.20;;;;;;5098308;28;20295;-68
2021/05/11 10:01:00;;;;;;;5.03;2.70;;;26.60;47.90;;;;;;5098223;28;20192;-67
2021/05/11 10:46:53;;;;;;;4.28;2.13;;;27.50;44.90;;;;;;5093042;28;20197;-69
2021/05/11 10:49:25;;;;;;;8.40;3.08;;;27.50;45.10;;;;;;5097554;28;20219;-68
2021/05/11 10:52:10;;;;;;;3.33;1.73;;;27.50;45.20;;;;;;5092833;28;20714;-66
2021/05/11 10:54:39;;;;;;;7.32;2.70;;;27.50;44.90;;;;;;5096989;28;20211;-67
2021/05/11 10:57:27;;;;;;;5.80;2.03;;;27.60;45.10;;;;;;5095725;28;20620;-68
2021/05/11 11:00:15;;;;;;;3.08;1.95;;;27.80;45.10;;;;;;5092967;28;20192;-67
2021/05/11 11:02:46;;;;;;;6.30;2.08;;;27.90;44.60;;;;;;5098405;28;20599;-69
2021/05/11 11:05:36;;;;;;;4.85;2.10;;;28.00;44.30;;;;;;5105538;28;20201;-67
2021/05/11 11:08:04;;;;;;;5.75;2.20;;;28.10;44.40;;;;;;5109302;28;20208;-69
2021/05/11 11:10:31;;;;;;;4.45;2.00;;;28.20;44.30;;;;;;5098691;28;20204;-68
2021/05/11 11:12:58;;;;;;;3.17;1.90;;;28.20;44.30;;;;;;5099818;28;20217;-68
2021/05/11 11:15:25;;;;;;;3.63;1.90;;;28.30;43.80;;;;;;5094359;28;20224;-69
2021/05/11 11:17:53;;;;;;;5.60;2.20;;;28.20;43.80;;;;;;5097077;28;20204;-68
2021/05/11 11:20:28;;;;;;;5.47;2.10;;;28.30;44.10;;;;;;5108396;28;20444;-68
2021/05/11 11:26:00;;;;;;;4.47;1.95;;;28.40;44.20;;;;;;5098812;28;20199;-68
2021/05/11 11:28:28;;;;;;;5.55;2.20;;;28.50;43.90;;;;;;5096635;28;20584;-68
2021/05/11 11:30:54;;;;;;;9.35;2.70;;;28.60;43.90;;;;;;5103686;28;20630;-68
2021/05/11 11:33:21;;;;;;;5.75;1.98;;;28.70;43.90;;;;;;5102090;28;20643;-69
2021/05/11 11:35:47;;;;;;;6.07;2.00;;;28.80;43.30;;;;;;5100920;28;20295;-70
2021/05/11 11:38:21;;;;;;;5.75;1.90;;;28.80;43.00;;;;;;5102224;28;20307;-69
2021/05/11 11:40:56;;;;;;;8.48;2.25;;;28.80;43.30;;;;;;5102080;28;20278;-67
2021/05/11 11:43:27;;;;;;;6.75;2.75;;;28.90;43.30;;;;;;5103580;28;20218;-67
2021/05/11 11:45:53;;;;;;;6.05;2.20;;;29.00;43.50;;;;;;5097169;28;20216;-69
2021/05/11 11:48:23;;;;;;;3.83;1.85;;;29.00;43.30;;;;;;5097089;28;20196;-69
2021/05/11 11:50:57;;;;;;;5.00;1.90;;;29.00;43.10;;;;;;5095317;28;20215;-70
2021/05/11 11:53:27;;;;;;;5.38;2.55;;;29.00;43.30;;;;;;5089556;28;20206;-70
2021/05/11 11:58:44;;;;;;;6.55;2.25;;;29.00;42.90;;;;;;5038673;28;20234;-69
2021/05/11 12:01:16;;;;;;;3.78;2.20;;;29.00;42.90;;;;;;5095623;28;20241;-68
2021/05/11 12:03:44;;;;;;;3.67;1.98;;;29.00;43.10;;;;;;5103546;28;20208;-71
2021/05/11 12:06:16;;;;;;;1.80;1.60;;;29.00;43.30;;;;;;5103181;28;20620;-67
2021/05/11 12:08:42;;;;;;;5.25;2.50;;;29.00;43.20;;;;;;5102221;28;20220;-68
2021/05/11 12:11:09;;;;;;;5.55;2.20;;;29.00;43.40;;;;;;5103469;28;20201;-68
2021/05/11 12:13:40;;;;;;;4.25;1.90;;;29.00;43.30;;;;;;5106438;28;20255;-68
2021/05/11 12:16:16;;;;;;;5.53;1.83;;;29.00;43.20;;;;;;5101009;28;20368;-69
2021/05/11 12:19:05;;;;;;;5.60;2.00;;;29.00;43.40;;;;;;5096018;28;20215;-68
2021/05/11 12:21:33;;;;;;;3.10;1.88;;;29.00;43.40;;;;;;5096763;28;20224;-68
2021/05/11 12:24:08;;;;;;;4.80;2.03;;;29.00;43.50;;;;;;5103206;28;22102;-69
2021/05/11 12:26:35;;;;;;;7.20;2.20;;;29.10;43.50;;;;;;5101343;28;20243;-68
2021/05/11 12:29:10;;;;;;;7.68;2.10;;;29.10;43.20;;;;;;5098284;28;20767;-69
2021/05/11 12:31:40;;;;;;;3.85;1.95;;;29.00;43.40;;;;;;5100590;28;20207;-68
2021/05/11 12:34:08;;;;;;;5.05;2.58;;;29.00;44.00;;;;;;5107518;28;20211;-68
2021/05/11 12:36:41;;;;;;;3.60;2.03;;;28.90;43.40;;;;;;5102658;28;20299;-68
2021/05/11 12:39:41;;;;;;;4.13;2.28;;;28.90;43.50;;;;;;5106044;28;20545;-71
2021/05/11 12:42:17;;;;;;;4.35;2.10;;;29.00;43.50;;;;;;5110702;28;20203;-67
2021/05/11 12:44:44;;;;;;;5.53;2.25;;;29.00;43.50;;;;;;5110171;28;20233;-66
2021/05/11 12:47:15;;;;;;;4.20;2.00;;;28.90;43.40;;;;;;5104793;28;20207;-68
2021/05/11 12:49:42;;;;;;;6.90;2.50;;;28.90;43.40;;;;;;5096682;28;20303;-67
2021/05/11 12:52:10;;;;;;;6.47;2.20;;;28.80;43.30;;;;;;5094121;28;20204;-69
2021/05/11 12:54:44;;;;;;;5.35;2.33;;;28.80;43.30;;;;;;5104725;28;20714;-68
2021/05/11 12:57:21;;;;;;;8.38;2.20;;;28.80;43.30;;;;;;5106225;28;20653;-68
2021/05/11 12:59:55;;;;;;;3.95;1.83;;;28.70;43.20;;;;;;5101322;28;20286;-67
2021/05/11 13:02:43;;;;;;;3.60;2.22;;;28.60;43.20;;;;;;5098456;28;20675;-68
2021/05/11 13:13:54;;;;;;;6.40;1.83;;;28.40;43.90;;;;;;5091576;28;20286;-70
2021/05/11 13:16:30;;;;;;;4.47;1.90;;;28.20;44.00;;;;;;5095050;28;20269;-68
2021/05/11 13:22:04;;;;;;;4.82;2.13;;;28.20;44.30;;;;;;5098433;28;20260;-69
2021/05/11 13:27:22;;;;;;;2.60;2.00;;;28.20;43.90;;;;;;5101051;28;20243;-68
2021/05/11 13:30:09;;;;;;;5.88;1.92;;;28.10;44.20;;;;;;5108282;28;20274;-67
2021/05/11 13:32:48;;;;;;;4.53;2.33;;;28.10;44.40;;;;;;5102898;28;20251;-68
2021/05/11 13:35:15;;;;;;;7.35;2.75;;;28.10;44.30;;;;;;5114115;28;20192;-68
2021/05/11 13:37:42;;;;;;;5.30;2.42;;;28.20;44.30;;;;;;5101540;28;20200;-67
2021/05/11 13:40:10;;;;;;;6.22;2.17;;;28.20;44.10;;;;;;5111548;28;20200;-68
2021/05/11 13:42:37;;;;;;;7.88;2.45;;;28.20;44.30;;;;;;5103575;28;20203;-69
2021/05/11 13:45:04;;;;;;;5.65;2.00;;;28.20;44.20;;;;;;5092886;28;20201;-69
2021/05/11 13:47:31;;;;;;;3.90;1.90;;;28.10;44.30;;;;;;5091961;28;20212;-69
2021/05/11 13:50:00;;;;;;;3.92;2.15;;;28.10;44.00;;;;;;5093068;28;20354;-68
2021/05/11 13:52:27;;;;;;;4.28;2.30;;;28.00;44.10;;;;;;5097840;28;20204;-69
2021/05/11 13:54:57;;;;;;;6.20;3.90;;;28.00;44.20;;;;;;5104769;28;20204;-68
2021/05/11 13:57:32;;;;;;;7.55;2.25;;;28.00;43.90;;;;;;5105476;28;20203;-70
2021/05/11 14:02:54;;;;;;;5.00;2.05;;;28.00;43.80;;;;;;5057401;28;20212;-69
2021/05/11 14:05:21;;;;;;;4.40;2.30;;;28.00;43.90;;;;;;5095085;28;20622;-69
2021/05/11 14:07:49;;;;;;;4.75;1.88;;;28.00;43.90;;;;;;5103000;28;20614;-68
2021/05/11 14:10:18;;;;;;;3.55;2.30;;;28.00;43.80;;;;;;5094579;28;20761;-69
2021/05/11 14:12:44;;;;;;;6.72;2.20;;;28.00;43.90;;;;;;5102700;28;20345;-69
2021/05/11 14:15:12;;;;;;;5.20;2.05;;;28.10;44.20;;;;;;5090652;28;20224;-69
2021/05/11 14:17:39;;;;;;;3.30;1.80;;;28.00;43.70;;;;;;5086864;28;20307;-69
2021/05/11 14:20:07;;;;;;;2.60;1.90;;;28.10;43.90;;;;;;5078024;28;20246;-68
2021/05/11 14:22:33;;;;;;;4.88;1.83;;;28.00;43.60;;;;;;5096895;28;20608;-69
2021/05/11 14:25:00;;;;;;;2.67;1.90;;;28.10;43.80;;;;;;5100729;28;20287;-70
2021/05/11 14:27:28;;;;;;;3.88;1.88;;;28.00;43.40;;;;;;5096793;28;20842;-70
2021/05/11 14:29:55;;;;;;;7.93;2.00;;;28.00;43.50;;;;;;5094425;28;20227;-69
2021/05/11 14:32:21;;;;;;;7.35;2.22;;;28.00;43.50;;;;;;5093301;28;20763;-71
2021/05/11 14:34:48;;;;;;;3.67;1.77;;;27.90;43.70;;;;;;5092073;28;20684;-70
2021/05/11 14:37:14;;;;;;;5.38;2.05;;;27.90;43.90;;;;;;5093356;28;20266;-69
2021/05/11 14:39:41;;;;;;;3.50;1.98;;;27.90;43.50;;;;;;5097435;28;20242;-70
2021/05/11 14:42:08;;;;;;;4.60;1.85;;;27.80;43.50;;;;;;5098924;28;20277;-70
2021/05/11 14:44:35;;;;;;;4.82;1.80;;;27.80;43.70;;;;;;5101831;28;20288;-69
2021/05/11 14:47:03;;;;;;;6.65;2.35;;;27.80;43.70;;;;;;5096667;28;20211;-69
2021/05/11 14:49:31;;;;;;;5.97;1.70;;;27.70;43.90;;;;;;5108310;28;20315;-70
2021/05/11 14:51:58;;;;;;;6.40;1.77;;;27.60;44.10;;;;;;5092948;28;20234;-69
2021/05/11 14:54:24;;;;;;;4.93;1.73;;;27.50;44.30;;;;;;5101330;28;20654;-69
2021/05/11 14:56:51;;;;;;;4.05;2.20;;;27.40;44.90;;;;;;5106558;28;20204;-70
2021/05/11 14:59:19;;;;;;;5.35;1.75;;;27.30;44.40;;;;;;5092041;28;20195;-71
2021/05/11 15:01:45;;;;;;;6.28;2.20;;;27.30;44.70;;;;;;5095237;28;20224;-70
2021/05/11 15:04:12;;;;;;;5.63;1.65;;;27.20;44.60;;;;;;5099911;28;20551;-72
2021/05/11 15:06:38;;;;;;;9.73;2.05;;;27.20;44.60;;;;;;5098864;28;20328;-71
2021/05/11 15:09:07;;;;;;;4.25;1.42;;;27.20;44.90;;;;;;5103866;28;20216;-70
2021/05/11 15:11:34;;;;;;;4.63;1.80;;;27.20;44.80;;;;;;5104570;28;20201;-68
2021/05/11 15:14:01;;;;;;;7.35;2.00;;;27.10;44.60;;;;;;5092976;28;20229;-68
2021/05/11 15:16:31;;;;;;;2.97;1.60;;;27.10;44.70;;;;;;5095767;28;20205;-69
2021/05/11 15:18:57;;;;;;;4.20;1.88;;;27.00;44.60;;;;;;5101845;28;20647;-70
2021/05/11 15:21:23;;;;;;;6.07;1.70;;;26.90;44.90;;;;;;5095841;28;20727;-68
2021/05/11 15:23:50;;;;;;;4.65;2.28;;;26.90;45.10;;;;;;5101759;28;20208;-69
2021/05/11 15:26:17;;;;;;;5.68;2.10;;;26.90;45.10;;;;;;5101667;28;20330;-68
2021/05/11 15:28:44;;;;;;;6.32;2.15;;;26.90;45.20;;;;;;5101924;28;20208;-68
2021/05/11 15:31:11;;;;;;;5.53;1.60;;;26.80;45.20;;;;;;5102334;28;20227;-68
2021/05/11 15:33:38;;;;;;;3.63;1.45;;;26.80;45.40;;;;;;5106848;28;20204;-67
2021/05/11 15:36:06;;;;;;;5.40;1.85;;;26.80;45.30;;;;;;5099009;28;20667;-68
2021/05/11 15:38:32;;;;;;;4.18;1.48;;;26.80;45.10;;;;;;5092886;28;20209;-71
2021/05/11 15:40:59;;;;;;;2.10;1.35;;;26.70;45.20;;;;;;5098417;28;20260;-68
2021/05/11 15:43:26;;;;;;;5.00;1.60;;;26.70;45.20;;;;;;5104490;28;20208;-68
2021/05/11 15:45:53;;;;;;;5.75;1.40;;;26.70;45.20;;;;;;5093514;28;20564;-66
2021/05/11 15:48:19;;;;;;;3.45;1.60;;;26.60;45.10;;;;;;5092634;28;20616;-68
2021/05/11 15:50:47;;;;;;;2.00;1.35;;;26.50;45.10;;;;;;5097755;28;20323;-69
2021/05/11 15:53:16;;;;;;;5.63;2.13;;;26.40;45.20;;;;;;5106019;28;20226;-69
2021/05/11 15:55:43;;;;;;;3.83;1.98;;;26.30;45.20;;;;;;5096082;28;20292;-67
2021/05/11 15:58:11;;;;;;;4.15;1.80;;;26.20;45.20;;;;;;5096670;28;20300;-69
2021/05/11 16:00:39;;;;;;;7.90;1.50;;;26.10;45.50;;;;;;5099088;28;20292;-69
2021/05/11 16:03:06;;;;;;;2.47;1.38;;;26.00;45.60;;;;;;5111644;28;20302;-69
2021/05/11 16:05:35;;;;;;;8.90;2.00;;;25.90;45.60;;;;;;5102266;28;20205;-69
2021/05/11 16:08:03;;;;;;;8.45;2.30;;;25.90;45.90;;;;;;5100303;28;20200;-69
2021/05/11 16:10:29;;;;;;;7.97;1.40;;;25.80;45.90;;;;;;5103716;28;20235;-69